Time;durP1;ratioP1;P1;durP2;ratioP2;P2;SDS_P1;SDS_P2;PMS_P1;PMS_P2;Temp;Humidity;BMP_temperature;BMP_pressure;BME280_temperature;BME280_humidity;BME280_pressure;Samples;Min_cycle;Max_cycle;Signal;HPM_P1;HPM_P2
2022/12/16 00:00:00;;;;;;;3.67;0.80;;;20.60;99.90;;;;;;5080015;28;20659;-83
2022/12/16 00:02:30;;;;;;;2.35;0.60;;;20.90;99.90;;;;;;5078841;28;20201;-84
2022/12/16 00:05:02;;;;;;;2.80;0.60;;;21.10;99.90;;;;;;5081791;28;20204;-80
2022/12/16 00:07:33;;;;;;;3.00;0.55;;;21.00;99.90;;;;;;5084787;28;20660;-83
2022/12/16 00:10:04;;;;;;;4.00;0.60;;;20.90;99.90;;;;;;5076749;28;20222;-81
2022/12/16 00:12:35;;;;;;;2.90;0.68;;;21.10;99.90;;;;;;5082396;28;20256;-85
2022/12/16 00:15:08;;;;;;;2.25;0.55;;;21.20;99.90;;;;;;5086447;28;20192;-85
2022/12/16 00:17:39;;;;;;;5.63;0.80;;;21.30;99.90;;;;;;5085497;28;20211;-81
2022/12/16 00:20:10;;;;;;;6.35;0.90;;;21.40;99.90;;;;;;5089450;28;20193;-80
2022/12/16 00:22:41;;;;;;;2.35;0.65;;;21.30;99.90;;;;;;5091165;28;20193;-81
2022/12/16 00:25:12;;;;;;;3.80;0.93;;;21.30;99.90;;;;;;5094336;28;20192;-84
2022/12/16 00:27:43;;;;;;;4.20;0.90;;;21.30;99.90;;;;;;5089566;28;20562;-82
2022/12/16 00:30:16;;;;;;;4.70;1.02;;;21.20;99.90;;;;;;5084273;28;20220;-81
2022/12/16 00:32:47;;;;;;;2.53;0.57;;;20.90;99.90;;;;;;5085089;28;20188;-83
2022/12/16 00:35:18;;;;;;;3.33;0.68;;;20.90;99.90;;;;;;5087179;28;20197;-83
2022/12/16 00:37:50;;;;;;;3.90;0.90;;;21.00;99.90;;;;;;5082513;28;20191;-83
2022/12/16 00:40:21;;;;;;;4.38;0.80;;;20.80;99.90;;;;;;5083759;28;20217;-80
2022/12/16 00:42:52;;;;;;;2.20;0.80;;;20.80;99.90;;;;;;5083188;28;20200;-83
2022/12/16 00:45:24;;;;;;;4.10;0.75;;;21.00;99.90;;;;;;5089847;28;20682;-79
2022/12/16 00:47:55;;;;;;;3.80;0.60;;;21.00;99.90;;;;;;5089168;28;20193;-82
2022/12/16 00:50:26;;;;;;;30.75;18.25;;;20.90;99.90;;;;;;5086202;28;20209;-82
2022/12/16 00:52:56;;;;;;;5.03;2.53;;;20.90;99.90;;;;;;5084585;28;20666;-83
2022/12/16 00:55:28;;;;;;;3.80;1.10;;;21.10;99.90;;;;;;5086534;28;20657;-83
2022/12/16 00:57:58;;;;;;;2.40;0.90;;;21.20;99.90;;;;;;5088486;28;20196;-82
2022/12/16 01:00:31;;;;;;;2.13;0.70;;;21.10;99.90;;;;;;5085934;28;20241;-83
2022/12/16 01:03:02;;;;;;;4.40;0.90;;;21.00;99.90;;;;;;5084987;28;20224;-85
2022/12/16 01:05:33;;;;;;;3.75;0.60;;;20.70;99.90;;;;;;5079774;28;20188;-80
2022/12/16 01:08:04;;;;;;;1.27;0.50;;;20.50;99.90;;;;;;5081747;28;20196;-83
2022/12/16 01:10:34;;;;;;;3.60;0.80;;;20.10;99.90;;;;;;5085517;28;20217;-79
2022/12/16 01:13:05;;;;;;;2.58;0.80;;;20.00;99.90;;;;;;5085928;28;20188;-80
2022/12/16 01:15:40;;;;;;;3.45;0.57;;;19.80;99.90;;;;;;5084392;28;20203;-79
2022/12/16 01:18:11;;;;;;;4.32;0.68;;;19.70;99.90;;;;;;5082207;28;20669;-82
2022/12/16 01:20:42;;;;;;;2.55;0.57;;;19.60;99.90;;;;;;5083773;28;20200;-81
2022/12/16 01:23:15;;;;;;;2.88;0.70;;;19.60;99.90;;;;;;5083841;28;20247;-79
2022/12/16 01:25:46;;;;;;;2.28;0.63;;;19.60;99.90;;;;;;5082989;28;20203;-80
2022/12/16 01:28:17;;;;;;;3.85;0.52;;;19.60;99.90;;;;;;5086525;28;20193;-83
2022/12/16 01:30:49;;;;;;;2.83;0.75;;;19.70;99.90;;;;;;5083905;28;20573;-79
2022/12/16 01:33:20;;;;;;;4.22;0.65;;;19.90;99.90;;;;;;5077331;28;20216;-82
2022/12/16 01:35:52;;;;;;;1.38;0.50;;;20.00;99.90;;;;;;5083112;28;20211;-82
2022/12/16 01:38:23;;;;;;;4.30;0.75;;;20.00;99.90;;;;;;5085488;28;20286;-84
2022/12/16 01:40:53;;;;;;;4.90;0.80;;;20.00;99.90;;;;;;5086773;28;20188;-79
2022/12/16 01:43:27;;;;;;;6.10;0.82;;;20.10;99.90;;;;;;5084220;28;20199;-80
2022/12/16 01:46:03;;;;;;;4.53;0.90;;;20.00;99.90;;;;;;5082196;28;20243;-79
2022/12/16 01:48:40;;;;;;;5.30;0.80;;;20.00;99.90;;;;;;5084356;28;20278;-80
2022/12/16 01:51:15;;;;;;;3.70;0.70;;;20.10;99.90;;;;;;5083872;28;20206;-79
2022/12/16 01:53:48;;;;;;;4.60;0.70;;;20.20;99.90;;;;;;5084966;28;20195;-78
2022/12/16 01:56:22;;;;;;;3.25;0.90;;;20.10;99.90;;;;;;5081291;28;20201;-78
2022/12/16 01:58:53;;;;;;;1.85;0.57;;;20.10;99.90;;;;;;5082111;28;20244;-79
2022/12/16 02:01:26;;;;;;;2.03;0.65;;;20.10;99.90;;;;;;5080707;28;20558;-79
2022/12/16 02:04:01;;;;;;;4.75;0.70;;;20.00;99.90;;;;;;5084728;28;20184;-79
2022/12/16 02:06:33;;;;;;;4.22;0.80;;;20.00;99.90;;;;;;5083030;28;20542;-76
2022/12/16 02:09:07;;;;;;;3.10;0.60;;;20.10;99.90;;;;;;5084580;28;20231;-79
2022/12/16 02:12:13;;;;;;;4.65;0.68;;;20.20;99.90;;;;;;5085303;28;20188;-80
2022/12/16 02:15:21;;;;;;;5.45;1.00;;;20.40;99.90;;;;;;5073950;28;20200;-82
2022/12/16 02:18:01;;;;;;;2.60;0.73;;;20.50;99.90;;;;;;5042818;28;20209;-77
2022/12/16 02:21:06;;;;;;;3.60;0.90;;;20.70;99.90;;;;;;5041447;28;20205;-80
2022/12/16 02:24:03;;;;;;;4.55;0.63;;;20.80;99.90;;;;;;5076116;28;20691;-78
2022/12/16 02:27:02;;;;;;;4.88;0.80;;;20.80;99.90;;;;;;5064224;28;20203;-79
2022/12/16 02:29:58;;;;;;;6.22;0.93;;;21.00;99.90;;;;;;5075426;28;20227;-78
2022/12/16 02:32:36;;;;;;;4.40;0.85;;;21.30;99.90;;;;;;5080688;28;20184;-80
2022/12/16 02:35:14;;;;;;;5.13;0.85;;;21.30;99.90;;;;;;5085261;28;20212;-79
2022/12/16 02:37:50;;;;;;;2.78;0.73;;;21.50;99.90;;;;;;5083368;28;20192;-79
2022/12/16 02:40:27;;;;;;;2.58;0.75;;;21.50;99.90;;;;;;5081279;28;20195;-78
2022/12/16 02:43:03;;;;;;;2.45;0.70;;;21.40;99.90;;;;;;5081972;28;20196;-79
2022/12/16 02:45:35;;;;;;;5.75;0.80;;;21.10;99.90;;;;;;5089261;28;20219;-80
2022/12/16 02:48:08;;;;;;;2.63;0.60;;;21.20;99.90;;;;;;5077868;28;20659;-80
2022/12/16 02:50:45;;;;;;;5.72;0.80;;;21.40;99.90;;;;;;5082273;28;20212;-79
2022/12/16 02:53:16;;;;;;;3.72;0.70;;;21.20;99.90;;;;;;5083612;28;20195;-77
2022/12/16 02:55:57;;;;;;;4.53;0.70;;;21.20;99.90;;;;;;5083522;28;20188;-78
2022/12/16 02:58:34;;;;;;;4.10;0.70;;;21.20;99.90;;;;;;5081340;28;20184;-81
2022/12/16 03:01:13;;;;;;;3.08;0.80;;;21.30;99.90;;;;;;5083804;28;20195;-78
2022/12/16 03:03:49;;;;;;;2.58;0.73;;;21.00;99.90;;;;;;5079253;28;20231;-82
2022/12/16 03:06:21;;;;;;;3.58;1.00;;;20.80;99.90;;;;;;5084200;28;20266;-79
2022/12/16 03:08:56;;;;;;;5.90;0.93;;;20.90;99.90;;;;;;5084101;28;20280;-80
2022/12/16 03:11:29;;;;;;;4.03;0.80;;;21.00;99.90;;;;;;5085708;28;20192;-81
2022/12/16 03:14:01;;;;;;;4.65;1.00;;;20.90;99.90;;;;;;5081363;28;20184;-80
2022/12/16 03:16:34;;;;;;;2.17;0.82;;;20.80;99.90;;;;;;5081581;28;20631;-79
2022/12/16 03:19:10;;;;;;;5.25;1.00;;;20.80;99.90;;;;;;5087720;28;20627;-80
2022/12/16 03:21:46;;;;;;;6.28;0.90;;;21.00;99.90;;;;;;5083248;28;20611;-79
2022/12/16 03:24:17;;;;;;;3.55;0.90;;;21.20;99.90;;;;;;5081309;28;20211;-80
2022/12/16 03:26:58;;;;;;;3.15;0.80;;;21.40;99.90;;;;;;5081779;28;20643;-78
2022/12/16 03:29:35;;;;;;;5.85;0.82;;;21.20;99.90;;;;;;5081796;28;20858;-79
2022/12/16 03:32:09;;;;;;;3.63;0.68;;;21.30;99.90;;;;;;5084257;28;20191;-83
2022/12/16 03:34:47;;;;;;;3.92;1.10;;;21.20;99.90;;;;;;5084373;28;20699;-80
2022/12/16 03:37:17;;;;;;;5.82;1.27;;;21.00;99.90;;;;;;5087134;28;20548;-79
2022/12/16 03:39:51;;;;;;;6.85;1.08;;;20.90;99.90;;;;;;5073831;28;20704;-80
2022/12/16 03:42:23;;;;;;;6.40;0.77;;;20.90;99.90;;;;;;5073203;28;20189;-79
2022/12/16 03:44:54;;;;;;;5.50;0.90;;;20.90;99.90;;;;;;5072962;28;20197;-77
2022/12/16 03:47:26;;;;;;;6.07;0.80;;;20.80;99.90;;;;;;5072935;28;20276;-79
2022/12/16 03:49:59;;;;;;;3.85;0.85;;;20.80;99.90;;;;;;5079040;28;20680;-81
2022/12/16 03:52:30;;;;;;;3.55;0.63;;;20.90;99.90;;;;;;5083469;28;20215;-78
2022/12/16 03:55:01;;;;;;;4.68;0.80;;;21.20;99.90;;;;;;5096887;28;20192;-80
2022/12/16 03:57:31;;;;;;;4.47;0.75;;;21.40;99.90;;;;;;5096946;28;20222;-79
2022/12/16 04:00:02;;;;;;;4.88;1.10;;;21.40;99.90;;;;;;5092396;28;20654;-80
2022/12/16 04:02:33;;;;;;;5.53;1.05;;;21.50;99.90;;;;;;5083043;28;20197;-84
2022/12/16 04:05:06;;;;;;;6.13;0.93;;;21.50;99.90;;;;;;5091755;28;20196;-78
2022/12/16 04:07:37;;;;;;;4.55;0.80;;;21.50;99.90;;;;;;5085492;28;20200;-79
2022/12/16 04:10:08;;;;;;;5.43;1.08;;;21.40;99.90;;;;;;5083016;28;20213;-82
2022/12/16 04:29:26;;;;;;;4.32;0.80;;;20.50;99.90;;;;;;5096027;28;20664;-79
2022/12/16 04:31:58;;;;;;;5.95;0.90;;;20.50;99.90;;;;;;5090518;28;20633;-77
2022/12/16 04:34:28;;;;;;;3.60;0.70;;;20.50;99.90;;;;;;5088112;28;20226;-77
